createdAt,value
2023-04-02T00:01:40.907Z,0.50
2023-04-02T00:05:56.269Z,0.20
2023-04-02T00:10:30.823Z,0.35
2023-04-02T00:14:56.065Z,0.30
2023-04-02T00:19:40.717Z,0.55
2023-04-02T00:23:56.468Z,0.15
2023-04-02T00:28:20.607Z,0.47
2023-04-02T00:32:35.017Z,0.50
2023-04-02T00:36:57.716Z,0.68
2023-04-02T00:41:18.137Z,0.30
2023-04-02T00:45:37.114Z,0.20
2023-04-02T00:54:23.226Z,0.30
2023-04-02T00:58:38.274Z,0.40
2023-04-02T01:03:31.015Z,0.17
2023-04-02T01:08:17.677Z,0.50
2023-04-02T01:12:54.958Z,0.30
2023-04-02T01:17:38.024Z,0.32
2023-04-02T01:22:12.817Z,0.50
2023-04-02T01:26:54.056Z,0.40
2023-04-02T01:31:06.765Z,0.30
2023-04-02T01:35:19.993Z,0.52
2023-04-02T01:39:44.478Z,0.35
2023-04-02T01:44:09.467Z,0.50
2023-04-02T01:48:30.825Z,0.35
2023-04-02T01:52:46.469Z,0.40
2023-04-02T01:56:59.295Z,0.20
2023-04-02T02:01:20.295Z,0.45
2023-04-02T02:05:33.751Z,0.52
2023-04-02T02:09:47.569Z,0.38
2023-04-02T02:14:18.077Z,0.32
2023-04-02T02:18:40.746Z,0.50
2023-04-02T02:23:04.970Z,0.63
2023-04-02T02:27:47.649Z,0.52
2023-04-02T02:32:01.971Z,0.50
2023-04-02T02:36:30.162Z,0.35
2023-04-02T02:40:59.403Z,0.35
2023-04-02T02:45:23.516Z,0.30
2023-04-02T02:49:43.631Z,0.40
2023-04-02T02:54:04.017Z,0.35
2023-04-02T02:58:24.181Z,0.35
2023-04-02T03:02:40.567Z,0.50
2023-04-02T03:06:54.902Z,0.40
2023-04-02T03:11:10.299Z,0.47
2023-04-02T03:15:43.214Z,0.32
2023-04-02T03:20:07.199Z,0.20
2023-04-02T03:24:42.409Z,0.52
2023-04-02T03:29:08.226Z,0.38
2023-04-02T03:33:36.678Z,0.55
2023-04-02T03:38:04.608Z,0.80
2023-04-02T03:42:26.061Z,0.52
2023-04-02T03:46:45.400Z,0.40
2023-04-02T03:55:29.844Z,0.50
2023-04-02T03:59:58.419Z,0.40
2023-04-02T04:04:19.478Z,0.30
2023-04-02T04:08:43.248Z,0.45
2023-04-02T04:13:04.980Z,0.40
2023-04-02T04:17:35.469Z,0.50
2023-04-02T04:21:48.070Z,0.30
2023-04-02T04:26:21.876Z,0.30
2023-04-02T04:31:04.958Z,0.45
2023-04-02T04:35:35.405Z,0.40
2023-04-02T04:40:35.055Z,0.30
2023-04-02T04:45:07.250Z,0.50
2023-04-02T04:49:37.319Z,0.50
2023-04-02T04:53:54.113Z,0.50
2023-04-02T04:58:37.338Z,0.65
2023-04-02T05:02:55.556Z,0.50
2023-04-02T05:07:23.096Z,0.43
2023-04-02T05:11:45.998Z,0.30
2023-04-02T05:16:39.847Z,0.57
2023-04-02T05:21:22.728Z,0.40
2023-04-02T05:25:35.384Z,0.63
2023-04-02T05:30:36.607Z,0.40
2023-04-02T05:34:54.342Z,0.52
2023-04-02T05:39:11.152Z,0.50
2023-04-02T05:43:27.380Z,0.68
2023-04-02T05:47:44.050Z,0.32
2023-04-02T05:52:01.984Z,0.30
2023-04-02T05:56:42.122Z,0.43
2023-04-02T06:01:16.256Z,0.30
2023-04-02T06:05:39.065Z,0.32
2023-04-02T06:10:01.584Z,0.50
2023-04-02T06:14:16.955Z,0.40
2023-04-02T06:18:32.621Z,0.50
2023-04-02T06:22:50.196Z,0.25
2023-04-02T06:27:07.271Z,0.40
2023-04-02T06:31:37.751Z,0.40
2023-04-02T06:35:52.838Z,0.70
2023-04-02T06:40:25.454Z,0.60
2023-04-02T06:44:39.141Z,0.50
2023-04-02T06:49:27.157Z,0.40
2023-04-02T06:53:45.598Z,0.68
2023-04-02T06:57:58.346Z,0.70
2023-04-02T07:02:31.617Z,1.30
2023-04-02T07:06:44.119Z,0.52
2023-04-02T07:10:57.524Z,0.77
2023-04-02T07:15:24.508Z,1.88
2023-04-02T07:19:36.980Z,0.85
2023-04-02T07:23:49.387Z,0.75
2023-04-02T07:28:02.374Z,1.50
2023-04-02T07:32:24.827Z,0.82
2023-04-02T07:36:37.756Z,0.90
2023-04-02T07:40:50.604Z,0.55
2023-04-02T07:45:14.285Z,0.68
2023-04-02T07:49:26.931Z,1.10
2023-04-02T07:53:39.473Z,0.60
2023-04-02T07:57:55.324Z,0.80
2023-04-02T08:02:13.501Z,0.82
2023-04-02T08:06:26.668Z,0.65
2023-04-02T08:10:39.109Z,0.90
2023-04-02T08:14:51.759Z,0.80
2023-04-02T08:19:04.320Z,1.30
2023-04-02T08:23:18.744Z,1.38
2023-04-02T08:27:31.690Z,0.98
2023-04-02T08:31:44.152Z,1.45
2023-04-02T08:35:58.070Z,0.90
2023-04-02T08:40:35.316Z,0.40
2023-04-02T08:45:24.207Z,0.80
2023-04-02T08:49:57.348Z,1.10
2023-04-02T08:54:30.686Z,1.33
2023-04-02T08:58:48.253Z,1.38
2023-04-02T09:03:16.334Z,0.80
2023-04-02T09:07:29.384Z,0.80
2023-04-02T09:11:55.912Z,0.70
2023-04-02T09:16:15.523Z,0.90
2023-04-02T09:20:29.508Z,0.55
2023-04-02T09:24:42.021Z,0.52
2023-04-02T09:29:36.762Z,0.70
2023-04-02T09:33:52.261Z,0.55
2023-04-02T09:38:08.250Z,0.93
2023-04-02T09:42:34.917Z,0.45
2023-04-02T09:47:04.837Z,0.50
2023-04-02T09:51:25.267Z,0.50
2023-04-02T09:55:37.959Z,0.60
2023-04-02T10:00:32.037Z,0.80
2023-04-02T10:04:48.653Z,3.10
2023-04-02T10:09:30.664Z,1.08
2023-04-02T10:14:01.897Z,1.00
2023-04-02T10:18:40.834Z,0.80
2023-04-02T10:22:53.248Z,0.70
2023-04-02T10:27:42.631Z,0.70
2023-04-02T10:32:13.293Z,1.25
2023-04-02T10:36:55.208Z,0.80
2023-04-02T10:41:25.907Z,1.10
2023-04-02T10:46:18.966Z,0.30
2023-04-02T10:50:52.623Z,0.30
2023-04-02T10:55:31.509Z,0.80
2023-04-02T11:00:13.207Z,1.00
2023-04-02T11:04:30.436Z,0.80
2023-04-02T11:08:48.440Z,0.80
2023-04-02T11:13:10.264Z,0.90
2023-04-02T11:17:25.977Z,0.75
2023-04-02T11:21:59.711Z,0.73
2023-04-02T11:26:43.970Z,0.82
2023-04-02T11:30:57.881Z,0.80
2023-04-02T11:35:32.100Z,0.70
2023-04-02T11:40:02.493Z,1.00
2023-04-02T11:44:25.673Z,0.75
2023-04-02T11:48:38.143Z,0.90
2023-04-02T11:52:53.723Z,0.80
2023-04-02T11:57:51.050Z,1.13
2023-04-02T12:02:29.280Z,0.80
2023-04-02T12:06:49.920Z,1.00
2023-04-02T12:11:12.400Z,1.30
2023-04-02T12:15:35.710Z,1.10
2023-04-02T12:19:56.514Z,0.95
2023-04-02T12:24:21.548Z,0.80
2023-04-02T12:28:47.145Z,1.02
2023-04-02T12:33:29.081Z,1.50
2023-04-02T12:37:54.809Z,1.33
2023-04-02T12:42:18.984Z,1.20
2023-04-02T12:46:34.871Z,1.30
2023-04-02T12:50:48.381Z,0.85
2023-04-02T12:55:04.445Z,1.00
2023-04-02T12:59:36.694Z,0.93
2023-04-02T13:04:14.454Z,1.40
2023-04-02T13:08:33.922Z,1.42
2023-04-02T13:12:46.977Z,1.20
2023-04-02T13:17:49.494Z,1.48
2023-04-02T13:22:04.189Z,1.67
2023-04-02T13:26:20.760Z,1.10
2023-04-02T13:30:41.208Z,1.10
2023-04-02T13:34:53.750Z,1.30
2023-04-02T13:39:07.314Z,1.20
2023-04-02T13:43:21.464Z,1.10
2023-04-02T13:47:33.981Z,0.90
2023-04-02T13:51:59.609Z,1.00
2023-04-02T13:56:12.115Z,1.35
2023-04-02T14:00:25.018Z,1.60
2023-04-02T14:04:50.158Z,0.93
2023-04-02T14:09:22.156Z,0.40
2023-04-02T14:13:58.772Z,0.40
2023-04-02T14:18:45.311Z,0.60
2023-04-02T14:24:02.067Z,0.47
2023-04-02T14:28:47.597Z,0.90
2023-04-02T14:33:37.694Z,0.60
2023-04-02T14:38:03.026Z,0.50
2023-04-02T14:42:21.704Z,1.50
2023-04-02T14:46:38.601Z,0.70
2023-04-02T14:51:05.290Z,0.52
2023-04-02T14:55:24.956Z,2.08
2023-04-02T14:59:49.319Z,0.63
2023-04-02T15:04:11.732Z,0.80
2023-04-02T15:08:31.869Z,0.60
2023-04-02T15:12:46.036Z,1.00
2023-04-02T15:16:58.445Z,0.70
2023-04-02T15:21:20.108Z,0.60
2023-04-02T15:25:44.636Z,0.77
2023-04-02T15:30:16.717Z,0.90
2023-04-02T15:34:49.800Z,1.20
2023-04-02T15:39:37.571Z,1.25
2023-04-02T15:44:14.996Z,1.13
2023-04-02T15:49:16.171Z,1.13
2023-04-02T15:53:50.690Z,1.13
2023-04-02T15:58:48.525Z,1.17
2023-04-02T16:03:23.701Z,1.40
2023-04-02T16:08:17.793Z,1.55
2023-04-02T16:12:31.954Z,1.52
2023-04-02T16:16:49.196Z,1.05
2023-04-02T16:21:04.738Z,2.13
2023-04-02T16:25:21.430Z,1.50
2023-04-02T16:29:59.921Z,1.63
2023-04-02T16:34:51.112Z,1.60
2023-04-02T16:39:36.499Z,1.50
2023-04-02T16:44:12.485Z,1.70
2023-04-02T16:48:45.291Z,1.40
2023-04-02T16:53:35.293Z,1.40
2023-04-02T16:58:32.266Z,1.52
2023-04-02T17:03:12.322Z,1.50
2023-04-02T17:07:41.820Z,2.10
2023-04-02T17:12:12.520Z,1.35
2023-04-02T17:16:47.298Z,1.70
2023-04-02T17:21:09.221Z,1.83
2023-04-02T17:25:27.414Z,1.77
2023-04-02T17:29:44.672Z,2.08
2023-04-02T17:33:57.083Z,2.30
2023-04-02T17:38:59.832Z,2.50
2023-04-02T17:43:52.773Z,2.00
2023-04-02T17:48:31.603Z,2.30
2023-04-02T17:53:19.815Z,2.38
2023-04-02T17:57:48.283Z,3.08
2023-04-02T18:02:07.720Z,2.50
2023-04-02T18:06:42.603Z,2.70
2023-04-02T18:11:15.040Z,3.28
2023-04-02T18:15:49.700Z,2.33
2023-04-02T18:20:11.701Z,3.10
2023-04-02T18:25:14.500Z,2.90
2023-04-02T18:29:46.764Z,2.70
2023-04-02T18:34:23.153Z,3.00
2023-04-02T18:39:22.378Z,2.63
2023-04-02T18:44:22.424Z,3.10
2023-04-02T18:49:00.866Z,2.72
2023-04-02T18:53:20.351Z,3.33
2023-04-02T18:57:36.839Z,2.63
2023-04-02T19:01:54.643Z,3.28
2023-04-02T19:06:33.498Z,2.97
2023-04-02T19:10:53.456Z,3.60
2023-04-02T19:15:18.163Z,3.63
2023-04-02T19:20:13.351Z,3.13
2023-04-02T19:25:02.536Z,3.80
2023-04-02T19:34:39.227Z,2.72
2023-04-02T19:39:29.693Z,2.63
2023-04-02T19:43:42.514Z,2.85
2023-04-02T19:47:57.844Z,2.80
2023-04-02T19:52:10.436Z,2.92
2023-04-02T19:56:23.530Z,1.95
2023-04-02T20:00:36.311Z,2.55
2023-04-02T20:04:48.907Z,1.70
2023-04-02T20:09:01.719Z,2.67
2023-04-02T20:13:14.812Z,2.60
2023-04-02T20:17:27.420Z,4.05
2023-04-02T20:21:39.966Z,2.80
2023-04-02T20:25:57.473Z,2.72
2023-04-02T20:30:12.320Z,2.08
2023-04-02T20:34:24.958Z,3.28
2023-04-02T20:38:37.751Z,2.83
2023-04-02T20:42:50.455Z,3.83
2023-04-02T20:47:03.281Z,2.35
2023-04-02T20:51:17.398Z,3.67
2023-04-02T20:55:29.885Z,4.25
2023-04-02T20:59:52.438Z,2.97
2023-04-02T21:04:05.356Z,2.45
2023-04-02T21:08:27.856Z,3.60
2023-04-02T21:12:40.306Z,3.78
2023-04-02T21:16:54.581Z,3.58
2023-04-02T21:21:08.227Z,3.70
2023-04-02T21:25:22.217Z,3.45
2023-04-02T21:29:39.221Z,2.70
2023-04-02T21:33:55.447Z,3.80
2023-04-02T21:38:16.166Z,2.53
2023-04-02T21:42:34.144Z,3.90
2023-04-02T21:46:46.905Z,4.18
2023-04-02T21:51:18.145Z,3.35
2023-04-02T21:55:30.603Z,4.82
2023-04-02T21:59:43.031Z,4.13
2023-04-02T22:04:01.421Z,4.47
2023-04-02T22:08:14.002Z,2.93
2023-04-02T22:12:26.602Z,3.50
2023-04-02T22:16:47.043Z,3.88
2023-04-02T22:21:00.661Z,3.92
2023-04-02T22:25:13.259Z,3.65
2023-04-02T22:29:25.740Z,3.47
2023-04-02T22:33:48.721Z,3.08
2023-04-02T22:38:01.160Z,4.47
2023-04-02T22:42:13.590Z,3.47
2023-04-02T22:46:27.874Z,3.28
2023-04-02T22:50:41.121Z,3.92
2023-04-02T22:54:53.602Z,4.03
2023-04-02T22:59:06.489Z,3.55
2023-04-02T23:03:18.893Z,2.92
2023-04-02T23:07:31.471Z,2.85
2023-04-02T23:11:43.961Z,1.42
2023-04-02T23:15:56.807Z,3.63
2023-04-02T23:20:11.743Z,2.38
2023-04-02T23:24:24.186Z,2.95
2023-04-02T23:28:38.207Z,3.97
2023-04-02T23:32:50.778Z,2.70
2023-04-02T23:37:03.310Z,2.75
2023-04-02T23:41:18.154Z,3.40
2023-04-02T23:45:31.319Z,3.47
2023-04-02T23:49:48.604Z,3.22
2023-04-02T23:54:01.181Z,3.72
2023-04-02T23:58:13.654Z,3.22
